Harrisville, Utah
Current Conditions -  °F | °C
As of 1:53 PM on Tuesday 21 Oct 2014 (Local Time) from KOGD Reporting Station
Broken Clouds Broken Clouds  
Wind Chill: 61°   Ceiling: 7000
Heat Index: 61°   Visibility: 10mi
Dew Point: 36°   Wind: 15mph
Humidity: 39%   Direction: 330°NNW
Pressure: 30.01"   Gusts: NA
Location:  41.2701°N, 112.135°W
Report Text: KOGD 211953Z 33013KT 10SM BKN070 16/02 A3001 RMK AO2 SLP122 T01610022
Loading
Personal Weather Stations






























Interactive Weather Map
Tropical Storm Tracking
New forecast layout! Learn more

10-Day Weather Forecast

Advertisements
Track Severe Weather on mobile